Terminal Aerodrome Forecast
Issued by NWS

Current Version | Previous Version | Text Only | Print | Product List | Glossary Off
Versions: 1 2 3 4 5 6 7 8 9 10 11 12 13 14 15 16 17

000
FTUS41 KRNK 232323
TAFLWB
TAF
KLWB 232323Z 2400/2424 30004KT P6SM VCSH SCT045 BKN080
     FM240200 00000KT P6SM SCT120
     FM240600 00000KT 2SM BR SCT080
     FM240800 00000KT 1/4SM FG BKN001
     FM241400 26003KT P6SM SCT025
     FM241800 27006KT P6SM SCT050=

USA.gov is the U.S. government's official web portal to all federal, state and local government web resources and services.